createdAt,value
2023-04-04T00:02:00.780Z,1.80
2023-04-04T00:04:29.346Z,2.90
2023-04-04T00:06:57.832Z,2.30
2023-04-04T00:09:27.441Z,2.20
2023-04-04T00:11:55.659Z,2.07
2023-04-04T00:14:23.958Z,1.77
2023-04-04T00:16:52.197Z,2.70
2023-04-04T00:19:20.408Z,2.53
2023-04-04T00:21:50.359Z,1.87
2023-04-04T00:24:18.602Z,1.70
2023-04-04T00:26:48.463Z,2.10
2023-04-04T00:29:17.376Z,2.90
2023-04-04T00:31:45.694Z,1.90
2023-04-04T00:34:14.060Z,2.37
2023-04-04T00:36:43.029Z,2.17
2023-04-04T00:39:11.567Z,2.30
2023-04-04T00:41:39.763Z,2.50
2023-04-04T00:44:09.409Z,2.40
2023-04-04T00:46:37.610Z,2.23
2023-04-04T00:49:06.285Z,2.17
2023-04-04T00:51:34.543Z,3.00
2023-04-04T00:54:02.894Z,2.90
2023-04-04T00:56:31.386Z,2.47
2023-04-04T00:58:59.789Z,1.90
2023-04-04T01:01:31.515Z,2.00
2023-04-04T01:03:59.766Z,2.33
2023-04-04T01:06:30.487Z,2.17
2023-04-04T01:08:58.803Z,2.50
2023-04-04T01:11:27.774Z,2.20
2023-04-04T01:13:56.300Z,1.90
2023-04-04T01:16:24.607Z,2.63
2023-04-04T01:18:55.640Z,2.00
2023-04-04T01:21:24.435Z,1.90
2023-04-04T01:23:56.543Z,2.10
2023-04-04T01:26:27.177Z,2.13
2023-04-04T01:28:55.514Z,1.80
2023-04-04T01:31:24.939Z,2.73
2023-04-04T01:33:56.839Z,2.53
2023-04-04T01:36:27.789Z,2.03
2023-04-04T01:39:00.574Z,1.80
2023-04-04T01:41:33.856Z,2.07
2023-04-04T01:44:02.139Z,2.23
2023-04-04T01:46:31.445Z,2.00
2023-04-04T01:49:00.332Z,2.77
2023-04-04T01:51:29.100Z,2.30
2023-04-04T01:53:57.294Z,1.80
2023-04-04T01:56:25.520Z,2.50
2023-04-04T01:58:55.127Z,2.20
2023-04-04T02:01:23.422Z,2.60
2023-04-04T02:03:51.717Z,1.90
2023-04-04T02:06:19.998Z,2.40
2023-04-04T02:08:50.576Z,1.63
2023-04-04T02:11:22.545Z,2.00
2023-04-04T02:13:50.720Z,3.07
2023-04-04T02:16:20.381Z,2.70
2023-04-04T02:18:48.835Z,2.67
2023-04-04T02:21:17.073Z,2.23
2023-04-04T02:23:45.230Z,2.43
2023-04-04T02:26:13.379Z,2.40
2023-04-04T02:28:41.618Z,2.57
2023-04-04T02:31:09.892Z,2.33
2023-04-04T02:33:39.498Z,3.00
2023-04-04T02:36:07.978Z,1.97
2023-04-04T02:38:36.375Z,1.73
2023-04-04T02:41:04.639Z,3.13
2023-04-04T02:43:32.952Z,3.10
2023-04-04T02:46:07.801Z,2.23
2023-04-04T02:48:44.903Z,2.40
2023-04-04T02:51:13.059Z,2.13
2023-04-04T02:53:41.382Z,2.33
2023-04-04T02:56:09.756Z,2.10
2023-04-04T02:58:37.997Z,2.00
2023-04-04T03:01:06.546Z,2.40
2023-04-04T03:03:35.132Z,2.20
2023-04-04T03:06:04.958Z,2.20
2023-04-04T03:08:33.125Z,2.10
2023-04-04T03:11:01.431Z,1.80
2023-04-04T03:13:29.823Z,2.30
2023-04-04T03:16:04.318Z,2.00
2023-04-04T03:18:33.511Z,1.90
2023-04-04T03:21:01.768Z,1.90
2023-04-04T03:23:31.373Z,2.03
2023-04-04T03:25:59.693Z,3.00
2023-04-04T03:28:27.861Z,1.37
2023-04-04T03:30:56.618Z,2.03
2023-04-04T03:33:24.869Z,2.43
2023-04-04T03:35:53.162Z,1.90
2023-04-04T03:38:21.502Z,2.07
2023-04-04T03:40:51.420Z,3.10
2023-04-04T03:43:19.647Z,2.00
2023-04-04T03:45:49.238Z,2.40
2023-04-04T03:48:17.773Z,2.10
2023-04-04T03:50:45.993Z,2.93
2023-04-04T03:53:14.708Z,3.33
2023-04-04T03:55:43.012Z,3.40
2023-04-04T03:58:12.559Z,4.00
2023-04-04T04:00:41.061Z,3.03
2023-04-04T04:03:09.632Z,3.33
2023-04-04T04:05:37.896Z,1.97
2023-04-04T04:08:06.650Z,2.67
2023-04-04T04:10:35.189Z,2.43
2023-04-04T04:13:03.348Z,3.40
2023-04-04T04:15:32.939Z,2.10
2023-04-04T04:18:01.270Z,1.30
2023-04-04T04:20:29.491Z,1.70
2023-04-04T04:22:57.666Z,3.00
2023-04-04T04:25:25.978Z,2.93
2023-04-04T04:27:57.349Z,3.17
2023-04-04T04:30:25.785Z,2.03
2023-04-04T04:32:56.202Z,2.33
2023-04-04T04:35:24.436Z,3.40
2023-04-04T04:37:53.043Z,2.80
2023-04-04T04:40:21.465Z,3.27
2023-04-04T04:42:51.254Z,2.50
2023-04-04T04:45:20.142Z,2.10
2023-04-04T04:47:48.381Z,2.00
2023-04-04T04:50:18.151Z,2.00
2023-04-04T04:52:46.540Z,2.53
2023-04-04T04:55:14.757Z,2.40
2023-04-04T04:57:43.236Z,2.40
2023-04-04T05:00:12.420Z,3.03
2023-04-04T05:02:40.769Z,2.93
2023-04-04T05:05:09.565Z,3.47
2023-04-04T05:07:39.148Z,3.60
2023-04-04T05:10:07.827Z,3.70
2023-04-04T05:12:37.071Z,2.83
2023-04-04T05:15:05.540Z,2.83
2023-04-04T05:17:33.792Z,2.40
2023-04-04T05:20:02.232Z,2.60
2023-04-04T05:22:30.536Z,2.27
2023-04-04T05:25:00.380Z,3.40
2023-04-04T05:27:28.550Z,4.50
2023-04-04T05:29:57.577Z,3.83
2023-04-04T05:32:26.014Z,2.50
2023-04-04T05:34:54.226Z,2.83
2023-04-04T05:37:22.382Z,3.17
2023-04-04T05:39:50.588Z,3.00
2023-04-04T05:42:20.185Z,3.40
2023-04-04T05:44:48.490Z,2.57
2023-04-04T05:47:16.690Z,3.00
2023-04-04T05:49:44.894Z,4.30
2023-04-04T05:52:13.139Z,4.10
2023-04-04T05:54:42.323Z,2.40
2023-04-04T05:57:10.536Z,3.13
2023-04-04T05:59:40.345Z,4.10
2023-04-04T06:02:08.740Z,3.53
2023-04-04T06:04:37.005Z,4.30
2023-04-04T06:07:05.147Z,3.00
2023-04-04T06:09:33.431Z,3.53
2023-04-04T06:12:01.582Z,4.10
2023-04-04T06:14:29.748Z,3.53
2023-04-04T06:16:59.773Z,3.83
2023-04-04T06:19:27.937Z,4.63
2023-04-04T06:21:56.389Z,2.90
2023-04-04T06:24:24.589Z,3.60
2023-04-04T06:26:52.807Z,3.47
2023-04-04T06:29:21.012Z,2.90
2023-04-04T06:31:49.290Z,3.37
2023-04-04T06:34:18.992Z,3.10
2023-04-04T06:36:47.168Z,3.60
2023-04-04T06:39:15.591Z,2.83
2023-04-04T06:41:43.762Z,3.53
2023-04-04T06:44:12.103Z,3.43
2023-04-04T06:46:40.410Z,3.17
2023-04-04T06:49:08.600Z,4.30
2023-04-04T06:51:38.144Z,2.37
2023-04-04T06:54:06.474Z,2.13
2023-04-04T06:56:34.749Z,3.27
2023-04-04T06:59:03.394Z,2.60
2023-04-04T07:01:31.740Z,3.00
2023-04-04T07:04:00.001Z,3.10
2023-04-04T07:06:29.733Z,2.90
2023-04-04T07:08:59.330Z,3.23
2023-04-04T07:11:27.583Z,2.70
2023-04-04T07:13:55.805Z,3.57
2023-04-04T07:16:24.142Z,2.70
2023-04-04T07:18:52.582Z,3.57
2023-04-04T07:21:20.884Z,3.40
2023-04-04T07:23:50.755Z,2.27
2023-04-04T07:26:20.300Z,2.13
2023-04-04T07:28:48.514Z,2.60
2023-04-04T07:31:16.798Z,1.90
2023-04-04T07:33:45.015Z,2.40
2023-04-04T07:36:13.329Z,1.90
2023-04-04T07:38:41.520Z,2.10
2023-04-04T07:41:11.721Z,2.80
2023-04-04T07:43:41.327Z,1.47
2023-04-04T07:46:09.600Z,2.67
2023-04-04T07:48:37.862Z,2.67
2023-04-04T07:51:06.211Z,2.77
2023-04-04T07:53:34.368Z,3.97
2023-04-04T07:56:06.368Z,4.43
2023-04-04T07:58:34.914Z,4.30
2023-04-04T08:01:04.993Z,2.87
2023-04-04T08:03:33.270Z,3.67
2023-04-04T08:06:01.578Z,3.30
2023-04-04T08:08:30.370Z,2.47
2023-04-04T08:10:58.607Z,2.93
2023-04-04T08:13:27.059Z,4.33
2023-04-04T08:15:55.541Z,3.90
2023-04-04T08:18:25.198Z,4.07
2023-04-04T08:20:53.412Z,3.53
2023-04-04T08:23:21.591Z,3.70
2023-04-04T08:25:49.769Z,2.23
2023-04-04T08:28:18.007Z,3.87
2023-04-04T08:30:46.381Z,3.23
2023-04-04T08:33:14.681Z,3.50
2023-04-04T08:35:44.372Z,4.70
2023-04-04T08:38:12.663Z,3.60
2023-04-04T08:40:41.189Z,4.17
2023-04-04T08:43:09.992Z,4.20
2023-04-04T08:45:39.121Z,3.70
2023-04-04T08:48:08.590Z,2.77
2023-04-04T08:50:39.266Z,4.63
2023-04-04T08:53:09.298Z,3.43
2023-04-04T08:55:37.699Z,2.67
2023-04-04T08:58:06.109Z,3.67
2023-04-04T09:00:34.366Z,3.60
2023-04-04T09:03:08.125Z,4.70
2023-04-04T09:05:37.452Z,5.23
2023-04-04T09:08:06.882Z,3.93
2023-04-04T09:10:37.951Z,4.30
2023-04-04T09:13:15.586Z,2.57
2023-04-04T09:15:47.724Z,3.47
2023-04-04T09:18:15.956Z,4.70
2023-04-04T09:20:45.155Z,3.40
2023-04-04T09:23:13.825Z,2.70
2023-04-04T09:26:02.620Z,2.97
2023-04-04T09:28:33.202Z,3.40
2023-04-04T09:31:02.346Z,2.80
2023-04-04T09:33:30.593Z,2.50
2023-04-04T09:35:59.999Z,3.77
2023-04-04T09:38:28.712Z,2.23
2023-04-04T09:40:58.801Z,5.37
2023-04-04T09:43:30.847Z,3.97
2023-04-04T09:46:00.245Z,3.87
2023-04-04T09:48:29.202Z,5.80
2023-04-04T09:50:59.458Z,4.30
2023-04-04T09:53:27.654Z,4.30
2023-04-04T09:55:56.968Z,3.50
2023-04-04T09:58:27.842Z,5.37
2023-04-04T10:00:57.173Z,4.47
2023-04-04T10:03:26.210Z,2.67
2023-04-04T10:05:58.845Z,3.93
2023-04-04T10:08:28.969Z,5.00
2023-04-04T10:11:09.852Z,4.10
2023-04-04T10:13:44.205Z,3.13
2023-04-04T10:16:12.695Z,2.90
2023-04-04T10:18:41.233Z,2.93
2023-04-04T10:23:42.341Z,3.30
2023-04-04T10:26:10.897Z,3.30
2023-04-04T10:28:40.660Z,1.83
2023-04-04T10:31:11.324Z,4.20
2023-04-04T10:33:42.652Z,4.20
2023-04-04T10:36:13.410Z,3.90
2023-04-04T10:38:44.819Z,4.37
2023-04-04T10:41:13.907Z,4.20
2023-04-04T10:43:47.114Z,3.27
2023-04-04T10:46:17.290Z,4.30
2023-04-04T10:48:45.943Z,5.17
2023-04-04T10:51:14.934Z,5.03
2023-04-04T10:53:43.273Z,4.23
2023-04-04T10:56:12.160Z,4.83
2023-04-04T10:58:44.547Z,5.00
2023-04-04T11:01:14.191Z,4.70
2023-04-04T11:04:06.760Z,4.60
2023-04-04T11:06:50.610Z,4.97
2023-04-04T11:09:44.577Z,2.93
2023-04-04T11:12:20.088Z,4.47
2023-04-04T11:15:10.811Z,3.47
2023-04-04T11:17:45.810Z,4.90
2023-04-04T11:20:17.012Z,4.03
2023-04-04T11:22:45.660Z,3.70
2023-04-04T11:25:34.880Z,4.37
2023-04-04T11:28:06.679Z,4.90
2023-04-04T11:30:44.069Z,4.63
2023-04-04T11:33:16.447Z,3.93
2023-04-04T11:35:48.755Z,2.43
2023-04-04T11:38:17.609Z,3.10
2023-04-04T11:40:56.257Z,4.00
2023-04-04T11:43:24.936Z,4.23
2023-04-04T11:45:55.452Z,4.80
2023-04-04T11:48:24.941Z,3.40
2023-04-04T11:50:55.232Z,2.87
2023-04-04T11:53:23.394Z,5.40
2023-04-04T11:55:51.800Z,5.20
2023-04-04T11:58:20.371Z,5.43
2023-04-04T12:00:49.027Z,3.60
2023-04-04T12:03:19.213Z,5.40
2023-04-04T12:05:48.487Z,6.67
2023-04-04T12:08:17.957Z,4.70
2023-04-04T12:10:46.765Z,3.40
2023-04-04T12:13:14.984Z,3.80
2023-04-04T12:15:44.953Z,2.50
2023-04-04T12:18:22.356Z,5.13
2023-04-04T12:20:52.795Z,5.23
2023-04-04T12:23:21.676Z,4.27
2023-04-04T12:25:54.557Z,4.80
2023-04-04T12:28:22.981Z,4.60
2023-04-04T12:30:51.340Z,3.70
2023-04-04T12:33:19.711Z,5.43
2023-04-04T12:35:54.782Z,3.90
2023-04-04T12:38:23.427Z,4.40
2023-04-04T12:40:53.030Z,3.30
2023-04-04T12:43:21.741Z,4.17
2023-04-04T12:45:51.883Z,4.33
2023-04-04T12:48:21.416Z,4.90
2023-04-04T12:50:55.013Z,3.03
2023-04-04T12:55:56.272Z,4.33
2023-04-04T12:58:26.047Z,4.97
2023-04-04T13:00:55.201Z,2.70
2023-04-04T13:03:24.370Z,6.43
2023-04-04T13:05:54.089Z,1.80
2023-04-04T13:08:23.452Z,2.83
2023-04-04T13:10:58.239Z,3.50
2023-04-04T13:13:33.110Z,4.20
2023-04-04T13:16:01.448Z,4.57
2023-04-04T13:18:34.064Z,4.03
2023-04-04T13:21:03.614Z,6.53
2023-04-04T13:23:31.910Z,5.10
2023-04-04T13:26:00.481Z,5.30
2023-04-04T13:28:28.861Z,4.47
2023-04-04T13:30:57.302Z,3.20
2023-04-04T13:33:25.884Z,4.93
2023-04-04T13:35:54.191Z,3.50
2023-04-04T13:38:25.899Z,5.23
2023-04-04T13:40:55.369Z,5.10
2023-04-04T13:43:23.784Z,3.07
2023-04-04T13:45:53.279Z,4.57
2023-04-04T13:48:21.573Z,2.93
2023-04-04T13:50:51.422Z,3.53
2023-04-04T13:53:19.741Z,4.23
2023-04-04T13:58:20.780Z,3.80
2023-04-04T14:00:49.633Z,4.30
2023-04-04T14:03:18.065Z,5.03
2023-04-04T14:05:46.405Z,3.40
2023-04-04T14:08:15.030Z,4.53
2023-04-04T14:10:43.285Z,2.93
2023-04-04T14:13:12.842Z,3.80
2023-04-04T14:15:41.573Z,2.53
2023-04-04T14:18:10.252Z,4.47
2023-04-04T14:20:38.572Z,4.50
2023-04-04T14:23:06.748Z,3.83
2023-04-04T14:25:35.646Z,4.40
2023-04-04T14:28:03.804Z,3.10
2023-04-04T14:30:33.337Z,2.00
2023-04-04T14:33:01.564Z,3.90
2023-04-04T14:35:29.831Z,4.10
2023-04-04T14:37:58.006Z,4.37
2023-04-04T14:40:26.513Z,4.63
2023-04-04T14:42:54.701Z,3.80
2023-04-04T14:45:23.195Z,3.80
2023-04-04T14:47:52.889Z,4.50
2023-04-04T14:50:21.225Z,4.83
2023-04-04T14:52:52.703Z,3.13
2023-04-04T14:55:22.012Z,2.60
2023-04-04T14:58:01.976Z,3.87
2023-04-04T15:00:31.259Z,4.67
2023-04-04T15:03:00.950Z,3.70
2023-04-04T15:05:29.289Z,4.23
2023-04-04T15:07:57.566Z,4.97
2023-04-04T15:10:26.080Z,4.10
2023-04-04T15:12:54.310Z,3.53
2023-04-04T15:15:23.734Z,3.33
2023-04-04T15:17:52.279Z,4.73
2023-04-04T15:20:21.865Z,4.30
2023-04-04T15:22:50.199Z,3.60
2023-04-04T15:25:18.398Z,3.60
2023-04-04T15:27:46.574Z,4.70
2023-04-04T15:30:15.550Z,3.27
2023-04-04T15:32:43.859Z,3.00
2023-04-04T15:35:17.152Z,2.30
2023-04-04T15:37:46.747Z,2.17
2023-04-04T15:40:15.837Z,3.40
2023-04-04T15:42:44.295Z,3.47
2023-04-04T15:45:13.010Z,3.00
2023-04-04T15:47:41.324Z,3.47
2023-04-04T15:50:11.610Z,3.87
2023-04-04T15:52:39.993Z,3.37
2023-04-04T15:55:12.125Z,2.97
2023-04-04T15:57:40.472Z,4.17
2023-04-04T16:00:09.317Z,2.37
2023-04-04T16:02:37.579Z,1.37
2023-04-04T16:05:06.112Z,3.50
2023-04-04T16:07:34.394Z,4.00
2023-04-04T16:10:02.608Z,2.60
2023-04-04T16:12:32.185Z,5.13
2023-04-04T16:15:00.425Z,4.07
2023-04-04T16:17:28.629Z,4.07
2023-04-04T16:19:56.865Z,3.23
2023-04-04T16:22:25.009Z,2.63
2023-04-04T16:24:53.789Z,1.67
2023-04-04T16:27:22.001Z,3.87
2023-04-04T16:29:52.132Z,4.93
2023-04-04T16:32:20.373Z,1.60
2023-04-04T16:34:48.550Z,2.00
2023-04-04T16:37:17.150Z,3.60
2023-04-04T16:39:46.572Z,3.80
2023-04-04T16:42:19.130Z,3.03
2023-04-04T16:44:47.869Z,3.40
2023-04-04T16:47:17.434Z,3.30
2023-04-04T16:49:47.162Z,3.70
2023-04-04T16:52:15.931Z,2.50
2023-04-04T16:54:44.105Z,3.17
2023-04-04T16:57:12.492Z,1.93
2023-04-04T16:59:40.778Z,2.03
2023-04-04T17:02:09.409Z,1.33
2023-04-04T17:04:41.571Z,2.40
2023-04-04T17:07:10.271Z,3.43
2023-04-04T17:09:38.750Z,3.10
2023-04-04T17:12:07.423Z,3.47
2023-04-04T17:14:35.800Z,3.50
2023-04-04T17:17:05.422Z,2.90
2023-04-04T17:19:35.100Z,3.10
2023-04-04T17:22:05.048Z,3.43
2023-04-04T17:24:33.279Z,3.53
2023-04-04T17:27:03.806Z,3.20
2023-04-04T17:29:32.351Z,2.30
2023-04-04T17:32:00.672Z,3.70
2023-04-04T17:34:28.989Z,3.60
2023-04-04T17:36:57.658Z,2.90
2023-04-04T17:39:27.311Z,2.70
2023-04-04T17:41:56.119Z,3.00
2023-04-04T17:44:24.339Z,3.20
2023-04-04T17:46:52.611Z,3.00
2023-04-04T17:49:20.862Z,3.20
2023-04-04T17:51:49.511Z,3.10
2023-04-04T17:54:17.788Z,3.00
2023-04-04T17:56:47.688Z,4.20
2023-04-04T17:59:17.401Z,2.47
2023-04-04T18:01:45.990Z,3.83
2023-04-04T18:04:14.422Z,2.53
2023-04-04T18:06:42.672Z,2.80
2023-04-04T18:09:11.125Z,2.77
2023-04-04T18:11:40.280Z,3.30
2023-04-04T18:14:09.867Z,3.10
2023-04-04T18:16:39.605Z,5.10
2023-04-04T18:19:09.749Z,3.40
2023-04-04T18:21:38.567Z,3.57
2023-04-04T18:24:07.840Z,3.40
2023-04-04T18:26:36.029Z,3.60
2023-04-04T18:29:04.239Z,3.30
2023-04-04T18:31:34.348Z,3.70
2023-04-04T18:34:02.599Z,3.20
2023-04-04T18:36:30.927Z,3.30
2023-04-04T18:39:00.991Z,5.40
2023-04-04T18:41:30.414Z,4.77
2023-04-04T18:43:58.608Z,5.40
2023-04-04T18:46:27.110Z,4.63
2023-04-04T18:48:56.702Z,4.83
2023-04-04T18:51:24.929Z,4.53
2023-04-04T18:53:53.164Z,3.50
2023-04-04T18:56:22.267Z,6.50
2023-04-04T18:58:50.609Z,6.30
2023-04-04T19:01:18.959Z,4.73
2023-04-04T19:03:48.194Z,3.83
2023-04-04T19:06:17.955Z,3.87
2023-04-04T19:08:46.339Z,4.27
2023-04-04T19:11:15.798Z,3.60
2023-04-04T19:13:44.147Z,4.67
2023-04-04T19:16:12.445Z,6.70
2023-04-04T19:18:41.063Z,6.70
2023-04-04T19:21:11.456Z,6.63
2023-04-04T19:23:41.100Z,6.20
2023-04-04T19:26:09.425Z,6.77
2023-04-04T19:28:37.686Z,7.67
2023-04-04T19:31:10.749Z,7.13
2023-04-04T19:33:39.669Z,6.57
2023-04-04T19:36:09.431Z,4.23
2023-04-04T19:38:40.123Z,6.90
2023-04-04T19:41:13.121Z,4.50
2023-04-04T19:43:43.572Z,5.70
2023-04-04T19:46:12.724Z,5.50
2023-04-04T19:48:45.985Z,3.80
2023-04-04T19:51:33.282Z,3.40
2023-04-04T19:54:01.646Z,4.07
2023-04-04T19:56:31.214Z,7.27
2023-04-04T19:59:00.347Z,6.27
2023-04-04T20:01:29.605Z,6.70
2023-04-04T20:03:58.114Z,5.90
2023-04-04T20:06:27.458Z,6.00
2023-04-04T20:08:56.987Z,6.20
2023-04-04T20:11:26.676Z,6.80
2023-04-04T20:13:57.440Z,5.40
2023-04-04T20:16:26.141Z,6.50
2023-04-04T20:18:54.753Z,5.13
2023-04-04T20:21:24.130Z,6.07
2023-04-04T20:23:53.522Z,5.90
2023-04-04T20:26:40.564Z,6.47
2023-04-04T20:29:11.017Z,7.60
2023-04-04T20:31:42.828Z,6.13
2023-04-04T20:34:28.374Z,6.53
2023-04-04T20:36:56.622Z,5.37
2023-04-04T20:39:48.968Z,6.10
2023-04-04T20:42:35.062Z,7.13
2023-04-04T20:45:14.706Z,5.60
2023-04-04T20:47:44.446Z,5.50
2023-04-04T20:50:42.857Z,6.70
2023-04-04T20:53:15.357Z,7.20
2023-04-04T20:55:44.690Z,7.60
2023-04-04T20:58:21.676Z,7.87
2023-04-04T21:00:52.630Z,8.80
2023-04-04T21:03:31.362Z,9.90
2023-04-04T21:06:02.774Z,9.67
2023-04-04T21:08:54.702Z,11.60
2023-04-04T21:11:27.260Z,12.00
2023-04-04T21:13:55.821Z,11.77
2023-04-04T21:16:29.914Z,11.60
2023-04-04T21:18:59.087Z,11.83
2023-04-04T21:21:27.467Z,11.90
2023-04-04T21:23:56.730Z,11.30
2023-04-04T21:26:29.387Z,11.60
2023-04-04T21:28:58.418Z,9.50
2023-04-04T21:31:28.330Z,8.67
2023-04-04T21:33:58.141Z,8.77
2023-04-04T21:36:29.407Z,8.13
2023-04-04T21:38:58.369Z,8.13
2023-04-04T21:41:27.808Z,8.13
2023-04-04T21:43:57.024Z,7.80
2023-04-04T21:46:27.980Z,7.70
2023-04-04T21:48:57.689Z,8.87
2023-04-04T21:51:26.120Z,8.23
2023-04-04T21:53:54.700Z,10.50
2023-04-04T21:56:27.097Z,8.10
2023-04-04T21:58:55.505Z,9.70
2023-04-04T22:01:23.880Z,9.77
2023-04-04T22:03:52.166Z,9.30
2023-04-04T22:06:25.247Z,9.00
2023-04-04T22:08:53.478Z,9.03
2023-04-04T22:11:21.919Z,8.40
2023-04-04T22:13:50.498Z,8.13
2023-04-04T22:16:19.616Z,8.37
2023-04-04T22:18:50.945Z,7.73
2023-04-04T22:21:25.976Z,8.50
2023-04-04T22:24:00.616Z,9.87
2023-04-04T22:26:33.296Z,10.10
2023-04-04T22:29:02.854Z,9.60
2023-04-04T22:31:34.377Z,7.63
2023-04-04T22:34:03.861Z,8.37
2023-04-04T22:36:34.383Z,9.90
2023-04-04T22:39:04.031Z,8.73
2023-04-04T22:41:32.258Z,8.67
2023-04-04T22:44:00.451Z,8.03
2023-04-04T22:46:29.971Z,7.60
2023-04-04T22:49:06.387Z,8.90
2023-04-04T22:51:42.935Z,8.43
2023-04-04T22:54:14.459Z,9.33
2023-04-04T22:56:43.143Z,8.77
2023-04-04T22:59:11.680Z,8.70
2023-04-04T23:01:40.245Z,8.60
2023-04-04T23:04:08.686Z,7.73
2023-04-04T23:06:38.593Z,7.93
2023-04-04T23:09:07.917Z,8.00
2023-04-04T23:11:38.191Z,8.17
2023-04-04T23:14:08.845Z,6.67
2023-04-04T23:16:37.799Z,7.97
2023-04-04T23:19:06.123Z,7.50
2023-04-04T23:21:34.443Z,6.70
2023-04-04T23:24:02.758Z,5.80
2023-04-04T23:26:32.438Z,6.47
2023-04-04T23:29:02.923Z,6.53
2023-04-04T23:31:31.363Z,7.20
2023-04-04T23:34:00.001Z,6.30
2023-04-04T23:36:28.471Z,5.70
2023-04-04T23:38:57.096Z,5.80
2023-04-04T23:41:25.333Z,6.57
2023-04-04T23:43:54.294Z,5.10
2023-04-04T23:46:24.109Z,5.60
2023-04-04T23:48:52.431Z,5.60
2023-04-04T23:51:21.425Z,5.50
2023-04-04T23:53:49.660Z,5.83
2023-04-04T23:56:17.928Z,5.80
2023-04-04T23:58:46.263Z,6.07
